createdAt,value
2019-02-15T00:02:11.810Z,9.80
2019-02-15T00:04:42.086Z,9.63
2019-02-15T00:07:15.143Z,9.64
2019-02-15T00:09:45.419Z,9.64
2019-02-15T00:12:15.718Z,9.75
2019-02-15T00:14:47.729Z,9.64
2019-02-15T00:17:32.042Z,9.49
2019-02-15T00:20:03.947Z,9.43
2019-02-15T00:22:34.217Z,9.53
2019-02-15T00:25:05.437Z,9.51
2019-02-15T00:27:35.733Z,9.38
2019-02-15T00:30:09.801Z,9.39
2019-02-15T00:32:40.107Z,9.36
2019-02-15T00:35:10.449Z,9.42
2019-02-15T00:37:40.745Z,9.51
2019-02-15T00:40:11.016Z,9.34
2019-02-15T00:42:41.296Z,9.25
2019-02-15T00:45:13.236Z,9.39
2019-02-15T00:47:51.162Z,9.30
2019-02-15T00:50:26.151Z,9.41
2019-02-15T00:52:58.080Z,9.33
2019-02-15T00:55:30.019Z,9.31
2019-02-15T00:58:10.949Z,9.39
2019-02-15T01:00:42.877Z,9.36
2019-02-15T01:03:31.248Z,9.31
2019-02-15T01:06:19.597Z,9.23
2019-02-15T01:09:08.171Z,9.25
2019-02-15T01:11:40.106Z,9.18
2019-02-15T01:14:10.384Z,9.20
2019-02-15T01:16:40.674Z,9.30
2019-02-15T01:19:10.951Z,9.28
2019-02-15T01:21:41.222Z,9.21
2019-02-15T01:24:11.505Z,9.14
2019-02-15T01:26:46.197Z,9.08
2019-02-15T01:29:18.114Z,9.01
2019-02-15T01:31:50.043Z,9.01
2019-02-15T01:34:27.980Z,8.93
2019-02-15T01:36:59.912Z,8.88
2019-02-15T01:39:37.746Z,8.91
2019-02-15T01:42:12.472Z,8.95
2019-02-15T01:44:58.228Z,8.83
2019-02-15T01:47:28.521Z,8.76
2019-02-15T01:49:58.800Z,8.81
2019-02-15T01:52:29.146Z,8.85
2019-02-15T01:54:59.423Z,8.83
2019-02-15T01:57:29.801Z,8.78
2019-02-15T02:00:00.150Z,8.68
2019-02-15T02:02:30.472Z,8.73
2019-02-15T02:05:00.778Z,8.74
2019-02-15T02:07:31.051Z,8.68
2019-02-15T02:10:01.349Z,8.62
2019-02-15T02:12:32.588Z,8.67
2019-02-15T02:15:03.454Z,8.60
2019-02-15T02:17:33.744Z,8.44
2019-02-15T02:20:05.406Z,8.34
2019-02-15T02:22:35.697Z,8.42
2019-02-15T02:25:07.210Z,8.23
2019-02-15T02:27:37.525Z,7.92
2019-02-15T02:30:09.554Z,7.84
2019-02-15T02:32:39.845Z,7.65
2019-02-15T02:35:10.158Z,7.81
2019-02-15T02:37:40.673Z,8.11
2019-02-15T02:40:10.933Z,7.84
2019-02-15T02:42:41.218Z,7.94
2019-02-15T02:45:11.569Z,7.79
2019-02-15T02:47:41.830Z,7.39
2019-02-15T02:50:12.103Z,7.72
2019-02-15T02:52:43.373Z,7.71
2019-02-15T02:55:13.646Z,7.68
2019-02-15T02:57:43.998Z,7.44
2019-02-15T03:00:14.283Z,7.29
2019-02-15T03:02:44.841Z,7.37
2019-02-15T03:05:15.127Z,7.61
2019-02-15T03:07:45.458Z,7.56
2019-02-15T03:10:17.000Z,7.72
2019-02-15T03:12:47.261Z,7.64
2019-02-15T03:15:17.523Z,7.48
2019-02-15T03:17:47.810Z,7.56
2019-02-15T03:20:18.095Z,7.74
2019-02-15T03:22:48.450Z,7.00
2019-02-15T03:25:19.718Z,7.24
2019-02-15T03:27:49.998Z,6.82
2019-02-15T03:30:20.314Z,6.90
2019-02-15T03:32:50.610Z,6.66
2019-02-15T03:35:20.871Z,6.38
2019-02-15T03:37:52.833Z,6.40
2019-02-15T03:40:27.949Z,6.46
2019-02-15T03:42:58.235Z,6.00
2019-02-15T03:45:28.513Z,6.43
2019-02-15T03:47:58.814Z,6.28
2019-02-15T03:50:29.099Z,6.98
2019-02-15T03:52:59.451Z,7.20
2019-02-15T03:55:29.722Z,7.12
2019-02-15T03:58:00.078Z,7.00
2019-02-15T04:00:30.376Z,7.04
2019-02-15T04:03:00.673Z,7.09
2019-02-15T04:05:31.082Z,6.51
2019-02-15T04:08:01.410Z,6.61
2019-02-15T04:10:31.701Z,6.54
2019-02-15T04:13:02.010Z,6.00
2019-02-15T04:15:32.397Z,6.47
2019-02-15T04:18:02.644Z,6.52
2019-02-15T04:20:33.104Z,6.49
2019-02-15T04:23:04.597Z,6.80
2019-02-15T04:25:34.878Z,7.00
2019-02-15T04:28:05.168Z,7.28
2019-02-15T04:30:35.443Z,7.33
2019-02-15T04:33:06.046Z,7.39
2019-02-15T04:35:36.322Z,7.42
2019-02-15T04:38:06.697Z,7.18
2019-02-15T04:40:37.238Z,7.00
2019-02-15T04:43:07.460Z,7.15
2019-02-15T04:45:37.861Z,6.94
2019-02-15T04:48:08.311Z,6.47
2019-02-15T04:50:38.961Z,6.31
2019-02-15T04:53:09.348Z,6.22
2019-02-15T04:55:39.925Z,6.34
2019-02-15T04:58:10.230Z,6.34
2019-02-15T05:00:40.664Z,6.55
2019-02-15T05:03:11.230Z,6.81
2019-02-15T05:05:41.537Z,6.08
2019-02-15T05:08:11.866Z,5.65
2019-02-15T05:10:42.148Z,5.48
2019-02-15T05:13:12.463Z,5.41
2019-02-15T05:15:42.994Z,5.53
2019-02-15T05:18:13.323Z,5.59
2019-02-15T05:20:43.615Z,5.66
2019-02-15T05:23:13.891Z,5.81
2019-02-15T05:25:44.182Z,5.88
2019-02-15T05:28:14.658Z,5.89
2019-02-15T05:30:44.960Z,5.92
2019-02-15T05:33:15.471Z,6.07
2019-02-15T05:35:45.839Z,6.26
2019-02-15T05:38:16.138Z,5.88
2019-02-15T05:40:46.486Z,5.82
2019-02-15T05:43:16.761Z,6.07
2019-02-15T05:45:47.032Z,5.98
2019-02-15T05:48:17.832Z,5.80
2019-02-15T05:50:48.157Z,5.69
2019-02-15T05:53:18.468Z,6.22
2019-02-15T05:55:49.838Z,6.12
2019-02-15T05:58:20.907Z,6.31
2019-02-15T06:00:51.309Z,6.38
2019-02-15T06:03:21.606Z,6.16
2019-02-15T06:05:51.887Z,6.23
2019-02-15T06:08:22.480Z,6.26
2019-02-15T06:10:54.472Z,6.42
2019-02-15T06:13:24.917Z,6.09
2019-02-15T06:15:55.386Z,6.04
2019-02-15T06:18:25.805Z,6.10
2019-02-15T06:20:56.225Z,6.09
2019-02-15T06:23:26.686Z,6.29
2019-02-15T06:25:56.977Z,6.40
2019-02-15T06:28:27.267Z,6.64
2019-02-15T06:30:57.527Z,5.76
2019-02-15T06:33:27.835Z,4.65
2019-02-15T06:35:58.126Z,4.10
2019-02-15T06:38:34.826Z,3.78
2019-02-15T06:41:00.436Z,3.42
2019-02-15T06:43:30.716Z,3.34
2019-02-15T06:46:01.023Z,5.32
2019-02-15T06:48:31.361Z,6.55
2019-02-15T06:51:02.990Z,6.04
2019-02-15T06:53:33.293Z,5.02
2019-02-15T06:56:03.573Z,4.63
2019-02-15T06:58:34.536Z,4.00
2019-02-15T07:01:24.775Z,3.66
2019-02-15T07:03:56.705Z,3.79
2019-02-15T07:06:27.002Z,3.60
2019-02-15T07:08:57.275Z,3.73
2019-02-15T07:11:27.559Z,3.87
2019-02-15T07:13:57.856Z,4.12
2019-02-15T07:16:28.274Z,3.91
2019-02-15T07:18:58.623Z,4.40
2019-02-15T07:21:28.905Z,5.30
2019-02-15T07:23:59.181Z,5.75
2019-02-15T07:26:29.490Z,6.25
2019-02-15T07:28:59.799Z,6.66
2019-02-15T07:31:30.354Z,6.96
2019-02-15T07:34:00.648Z,7.23
2019-02-15T07:36:31.106Z,7.23
2019-02-15T07:39:01.387Z,6.98
2019-02-15T07:41:32.756Z,6.89
2019-02-15T07:44:03.056Z,6.81
2019-02-15T07:46:33.322Z,6.83
2019-02-15T07:49:03.613Z,7.05
2019-02-15T07:51:33.945Z,7.01
2019-02-15T07:54:04.260Z,6.86
2019-02-15T07:56:35.523Z,6.64
2019-02-15T07:59:05.811Z,6.44
2019-02-15T08:01:36.091Z,6.56
2019-02-15T08:04:06.879Z,6.40
2019-02-15T08:06:37.291Z,6.72
2019-02-15T08:09:10.799Z,6.63
2019-02-15T08:11:41.142Z,6.60
2019-02-15T08:14:14.916Z,6.79
2019-02-15T08:16:43.431Z,6.73
2019-02-15T08:19:16.215Z,6.71
2019-02-15T08:21:46.521Z,6.67
2019-02-15T08:24:16.822Z,6.53
2019-02-15T08:26:47.284Z,6.58
2019-02-15T08:29:17.554Z,6.88
2019-02-15T08:31:47.870Z,6.89
2019-02-15T08:34:18.209Z,6.83
2019-02-15T08:36:48.529Z,6.57
2019-02-15T08:39:18.986Z,6.66
2019-02-15T08:42:00.695Z,6.50
2019-02-15T08:44:21.238Z,6.58
2019-02-15T08:46:51.534Z,6.76
2019-02-15T08:49:21.825Z,6.62
2019-02-15T08:51:52.148Z,6.58
2019-02-15T08:54:22.445Z,6.60
2019-02-15T08:56:52.739Z,6.52
2019-02-15T08:59:23.030Z,6.78
2019-02-15T09:02:00.970Z,6.97
2019-02-15T09:04:31.750Z,6.80
2019-02-15T09:07:02.080Z,7.00
2019-02-15T09:09:32.446Z,7.09
2019-02-15T09:12:02.731Z,7.52
2019-02-15T09:14:33.005Z,6.88
2019-02-15T09:17:03.383Z,6.62
2019-02-15T09:19:33.697Z,6.06
2019-02-15T09:22:04.480Z,5.74
2019-02-15T09:24:34.771Z,5.75
2019-02-15T09:27:06.678Z,6.04
2019-02-15T09:29:36.999Z,5.74
2019-02-15T09:32:07.296Z,5.81
2019-02-15T09:34:37.634Z,5.91
2019-02-15T09:37:08.010Z,5.78
2019-02-15T09:39:39.558Z,6.02
2019-02-15T09:42:10.051Z,6.50
2019-02-15T09:44:40.350Z,6.26
2019-02-15T09:47:14.564Z,6.48
2019-02-15T09:49:46.727Z,6.65
2019-02-15T09:52:16.893Z,7.04
2019-02-15T09:54:47.285Z,7.19
2019-02-15T09:57:17.590Z,7.64
2019-02-15T09:59:48.164Z,7.65
2019-02-15T10:02:18.444Z,7.56
2019-02-15T10:04:48.778Z,7.72
2019-02-15T10:07:19.103Z,7.49
2019-02-15T10:09:49.430Z,7.50
2019-02-15T10:12:19.714Z,7.42
2019-02-15T10:14:50.014Z,7.60
2019-02-15T10:17:20.298Z,7.93
2019-02-15T10:19:50.636Z,7.86
2019-02-15T10:22:21.072Z,7.74
2019-02-15T10:24:51.371Z,8.34
2019-02-15T10:27:21.686Z,8.06
2019-02-15T10:29:51.965Z,8.11
2019-02-15T10:32:22.336Z,7.94
2019-02-15T10:34:52.622Z,7.67
2019-02-15T10:37:22.911Z,7.77
2019-02-15T10:39:53.213Z,7.83
2019-02-15T10:42:23.613Z,7.69
2019-02-15T10:44:53.910Z,7.72
2019-02-15T10:47:25.185Z,7.74
2019-02-15T10:49:55.704Z,6.99
2019-02-15T10:52:26.005Z,6.80
2019-02-15T10:54:56.305Z,6.44
2019-02-15T10:57:26.600Z,6.79
2019-02-15T10:59:56.883Z,7.08
2019-02-15T11:02:27.252Z,6.72
2019-02-15T11:04:57.549Z,7.07
2019-02-15T11:07:27.875Z,6.64
2019-02-15T11:09:58.169Z,6.20
2019-02-15T11:12:28.586Z,5.84
2019-02-15T11:14:58.878Z,5.67
2019-02-15T11:17:29.168Z,5.61
2019-02-15T11:19:59.490Z,5.76
2019-02-15T11:22:29.819Z,5.70
2019-02-15T11:25:00.319Z,5.53
2019-02-15T11:27:30.574Z,5.98
2019-02-15T11:30:01.975Z,6.42
2019-02-15T11:32:33.545Z,6.28
2019-02-15T11:35:05.484Z,6.21
2019-02-15T11:37:35.790Z,6.35
2019-02-15T11:40:09.099Z,5.80
2019-02-15T11:42:39.411Z,6.23
2019-02-15T11:45:14.465Z,6.51
2019-02-15T11:47:44.737Z,6.39
2019-02-15T11:50:15.541Z,6.31
2019-02-15T11:52:45.845Z,6.05
2019-02-15T11:55:19.125Z,6.00
2019-02-15T11:57:49.482Z,6.38
2019-02-15T12:00:33.906Z,6.57
2019-02-15T12:03:04.383Z,6.15
2019-02-15T12:05:34.687Z,6.48
2019-02-15T12:08:05.002Z,6.91
2019-02-15T12:10:36.835Z,6.73
2019-02-15T12:13:07.173Z,7.19
2019-02-15T12:15:37.500Z,6.28
2019-02-15T12:18:07.814Z,6.73
2019-02-15T12:20:39.644Z,6.40
2019-02-15T12:23:09.928Z,6.83
2019-02-15T12:25:40.261Z,7.08
2019-02-15T12:28:10.560Z,6.91
2019-02-15T12:30:41.004Z,6.82
2019-02-15T12:33:11.312Z,6.53
2019-02-15T12:35:41.599Z,6.61
2019-02-15T12:38:11.905Z,6.49
2019-02-15T12:40:42.213Z,6.39
2019-02-15T12:43:12.529Z,6.93
2019-02-15T12:45:42.821Z,7.03
2019-02-15T12:48:14.090Z,6.72
2019-02-15T12:50:44.482Z,6.80
2019-02-15T12:53:14.842Z,6.85
2019-02-15T12:55:45.148Z,6.69
2019-02-15T12:58:15.413Z,6.85
2019-02-15T13:00:45.722Z,7.39
2019-02-15T13:03:16.213Z,7.78
2019-02-15T13:05:46.583Z,7.80
2019-02-15T13:08:16.868Z,7.53
2019-02-15T13:10:47.173Z,7.06
2019-02-15T13:13:17.467Z,7.47
2019-02-15T13:15:47.761Z,7.69
2019-02-15T13:18:19.576Z,7.71
2019-02-15T13:20:49.848Z,7.26
2019-02-15T13:23:20.163Z,7.41
2019-02-15T13:25:50.467Z,7.74
2019-02-15T13:28:20.815Z,7.37
2019-02-15T13:30:51.112Z,8.02
2019-02-15T13:33:21.393Z,8.18
2019-02-15T13:35:51.661Z,8.39
2019-02-15T13:38:22.141Z,8.43
2019-02-15T13:40:52.421Z,8.35
2019-02-15T13:43:22.695Z,8.99
2019-02-15T13:45:53.004Z,8.85
2019-02-15T13:48:23.292Z,8.84
2019-02-15T13:50:53.564Z,8.42
2019-02-15T13:53:23.864Z,9.00
2019-02-15T13:55:55.267Z,9.12
2019-02-15T13:58:25.528Z,9.11
2019-02-15T14:00:56.131Z,9.03
2019-02-15T14:03:26.571Z,9.15
2019-02-15T14:05:57.093Z,9.52
2019-02-15T14:08:27.783Z,9.60
2019-02-15T14:10:58.077Z,9.77
2019-02-15T14:13:28.550Z,9.87
2019-02-15T14:15:59.123Z,9.54
2019-02-15T14:18:29.402Z,9.17
2019-02-15T14:21:00.941Z,9.49
2019-02-15T14:23:31.246Z,11.05
2019-02-15T14:26:03.320Z,10.91
2019-02-15T14:28:33.642Z,11.65
2019-02-15T14:31:03.916Z,10.04
2019-02-15T14:33:34.213Z,8.77
2019-02-15T14:36:04.510Z,9.03
2019-02-15T14:38:34.834Z,8.93
2019-02-15T14:41:05.128Z,9.17
2019-02-15T14:43:35.451Z,8.06
2019-02-15T14:46:05.751Z,8.16
2019-02-15T14:48:36.049Z,8.30
2019-02-15T14:51:07.427Z,8.68
2019-02-15T14:53:37.736Z,8.49
2019-02-15T14:56:08.085Z,8.53
2019-02-15T14:58:38.525Z,8.63
2019-02-15T15:01:08.824Z,8.89
2019-02-15T15:03:39.156Z,8.66
2019-02-15T15:06:09.422Z,9.32
2019-02-15T15:08:39.728Z,8.39
2019-02-15T15:11:10.017Z,8.62
2019-02-15T15:13:40.322Z,8.77
2019-02-15T15:16:10.625Z,8.47
2019-02-15T15:18:41.000Z,8.59
2019-02-15T15:21:11.149Z,8.56
2019-02-15T15:23:41.445Z,8.31
2019-02-15T15:26:12.330Z,8.24
2019-02-15T15:28:42.636Z,7.93
2019-02-15T15:31:12.899Z,7.94
2019-02-15T15:33:43.181Z,8.13
2019-02-15T15:36:13.641Z,8.23
2019-02-15T15:38:43.944Z,8.06
2019-02-15T15:41:14.250Z,8.28
2019-02-15T15:43:44.582Z,8.12
2019-02-15T15:46:14.993Z,8.16
2019-02-15T15:48:45.651Z,8.17
2019-02-15T15:51:21.228Z,8.25
2019-02-15T15:53:51.507Z,8.28
2019-02-15T15:56:21.858Z,8.25
2019-02-15T15:58:52.490Z,8.33
2019-02-15T16:01:23.086Z,8.27
2019-02-15T16:03:53.804Z,8.51
2019-02-15T16:06:24.860Z,8.76
2019-02-15T16:08:55.926Z,8.82
2019-02-15T16:11:26.442Z,8.58
2019-02-15T16:13:57.116Z,8.57
2019-02-15T16:16:27.811Z,8.64
2019-02-15T16:18:58.256Z,8.73
2019-02-15T16:21:29.036Z,8.86
2019-02-15T16:23:59.645Z,8.88
2019-02-15T16:26:30.012Z,8.92
2019-02-15T16:29:00.387Z,8.90
2019-02-15T16:31:31.378Z,8.90
2019-02-15T16:34:01.666Z,8.84
2019-02-15T16:36:32.228Z,8.59
2019-02-15T16:39:02.786Z,8.62
2019-02-15T16:41:34.339Z,8.64
2019-02-15T16:44:04.871Z,8.49
2019-02-15T16:46:35.692Z,8.43
2019-02-15T16:49:06.102Z,8.45
2019-02-15T16:51:36.438Z,8.37
2019-02-15T16:54:07.280Z,8.41
2019-02-15T16:56:37.619Z,8.32
2019-02-15T16:59:08.644Z,8.37
2019-02-15T17:01:39.552Z,8.14
2019-02-15T17:04:10.428Z,8.12
2019-02-15T17:06:41.053Z,8.08
2019-02-15T17:09:13.246Z,7.99
2019-02-15T17:11:43.631Z,8.04
2019-02-15T17:14:14.269Z,7.99
2019-02-15T17:16:44.586Z,8.00
2019-02-15T17:19:15.454Z,7.73
2019-02-15T17:21:45.817Z,7.73
2019-02-15T17:24:16.192Z,7.79
2019-02-15T17:26:46.496Z,7.66
2019-02-15T17:29:16.830Z,7.55
2019-02-15T17:31:47.149Z,7.53
2019-02-15T17:34:17.436Z,7.57
2019-02-15T17:36:47.755Z,7.78
2019-02-15T17:39:18.105Z,7.90
2019-02-15T17:41:48.428Z,7.70
2019-02-15T17:44:23.326Z,7.62
2019-02-15T17:46:54.073Z,7.66
2019-02-15T17:49:24.431Z,7.77
2019-02-15T17:51:56.843Z,7.92
2019-02-15T17:54:27.128Z,7.84
2019-02-15T17:56:57.449Z,7.65
2019-02-15T17:59:27.800Z,7.43
2019-02-15T18:01:58.114Z,7.05
2019-02-15T18:04:28.436Z,7.28
2019-02-15T18:06:58.720Z,7.30
2019-02-15T18:09:29.021Z,7.04
2019-02-15T18:11:59.343Z,6.80
2019-02-15T18:14:30.022Z,7.00
2019-02-15T18:17:02.358Z,7.14
2019-02-15T18:19:32.619Z,7.24
2019-02-15T18:22:03.150Z,7.21
2019-02-15T18:24:35.115Z,7.20
2019-02-15T18:27:05.488Z,7.20
2019-02-15T18:29:35.814Z,7.07
2019-02-15T18:32:06.163Z,7.02
2019-02-15T18:34:36.486Z,7.07
2019-02-15T18:37:06.815Z,7.07
2019-02-15T18:39:40.373Z,7.04
2019-02-15T18:42:10.996Z,7.04
2019-02-15T18:44:41.685Z,7.01
2019-02-15T18:47:12.551Z,6.87
2019-02-15T18:49:44.485Z,6.87
2019-02-15T18:52:14.910Z,6.92
2019-02-15T18:54:47.032Z,6.93
2019-02-15T18:57:17.374Z,6.96
2019-02-15T18:59:47.689Z,6.96
2019-02-15T19:02:18.085Z,6.95
2019-02-15T19:04:48.401Z,6.86
2019-02-15T19:07:18.662Z,6.85
2019-02-15T19:09:49.054Z,6.80
2019-02-15T19:12:19.600Z,6.91
2019-02-15T19:14:50.441Z,6.95
2019-02-15T19:17:21.472Z,6.52
2019-02-15T19:19:51.935Z,6.17
2019-02-15T19:22:22.865Z,6.56
2019-02-15T19:24:53.265Z,6.71
2019-02-15T19:27:24.252Z,6.63
2019-02-15T19:29:54.744Z,6.64
2019-02-15T19:32:25.393Z,6.71
2019-02-15T19:34:55.713Z,6.57
2019-02-15T19:37:29.268Z,6.75
2019-02-15T19:40:02.150Z,6.87
2019-02-15T19:42:33.084Z,6.74
2019-02-15T19:45:04.863Z,6.78
2019-02-15T19:47:35.454Z,6.53
2019-02-15T19:50:09.614Z,6.82
2019-02-15T19:52:40.357Z,6.89
2019-02-15T19:55:11.482Z,6.89
2019-02-15T19:57:42.487Z,6.98
2019-02-15T20:00:17.931Z,6.98
2019-02-15T20:02:48.348Z,6.96
2019-02-15T20:05:19.367Z,7.07
2019-02-15T20:07:49.740Z,6.81
2019-02-15T20:10:23.754Z,6.89
2019-02-15T20:12:54.340Z,6.93
2019-02-15T20:15:24.840Z,6.94
2019-02-15T20:17:55.656Z,6.85
2019-02-15T20:20:26.112Z,6.65
2019-02-15T20:22:56.416Z,6.64
2019-02-15T20:25:26.803Z,6.68
2019-02-15T20:27:57.165Z,6.82
2019-02-15T20:30:27.702Z,6.98
2019-02-15T20:32:59.561Z,6.72
2019-02-15T20:35:29.847Z,6.96
2019-02-15T20:38:01.693Z,6.93
2019-02-15T20:40:32.015Z,6.89
2019-02-15T20:43:02.479Z,6.99
2019-02-15T20:45:32.887Z,6.94
2019-02-15T20:48:03.881Z,6.82
2019-02-15T20:50:34.310Z,6.70
2019-02-15T20:53:04.776Z,6.59
2019-02-15T20:55:35.271Z,6.71
2019-02-15T20:58:05.933Z,6.67
2019-02-15T21:00:36.747Z,6.78
2019-02-15T21:03:07.093Z,6.38
2019-02-15T21:05:37.636Z,6.67
2019-02-15T21:08:08.078Z,6.76
2019-02-15T21:10:38.417Z,6.56
2019-02-15T21:13:08.819Z,6.43
2019-02-15T21:15:39.202Z,6.58
2019-02-15T21:18:09.590Z,6.65
2019-02-15T21:20:39.865Z,6.53
2019-02-15T21:23:10.462Z,6.35
2019-02-15T21:25:41.050Z,6.28
2019-02-15T21:28:12.575Z,6.51
2019-02-15T21:30:42.958Z,6.23
2019-02-15T21:33:13.657Z,6.30
2019-02-15T21:35:44.012Z,6.06
2019-02-15T21:38:14.465Z,6.37
2019-02-15T21:40:45.081Z,6.41
2019-02-15T21:43:16.471Z,6.24
2019-02-15T21:45:47.009Z,6.18
2019-02-15T21:48:17.667Z,6.31
2019-02-15T21:50:48.177Z,6.15
2019-02-15T21:53:18.917Z,6.37
2019-02-15T21:55:49.270Z,6.49
2019-02-15T21:58:22.538Z,6.29
2019-02-15T22:00:54.451Z,6.06
2019-02-15T22:03:26.276Z,5.82
2019-02-15T22:05:57.233Z,6.09
2019-02-15T22:08:27.934Z,6.23
2019-02-15T22:10:58.239Z,6.31
2019-02-15T22:13:28.525Z,6.23
2019-02-15T22:15:58.808Z,6.06
2019-02-15T22:18:29.141Z,6.32
2019-02-15T22:20:59.672Z,6.40
2019-02-15T22:23:30.031Z,6.53
2019-02-15T22:26:00.379Z,6.58
2019-02-15T22:28:30.677Z,6.29
2019-02-15T22:31:00.997Z,6.23
2019-02-15T22:33:31.275Z,6.09
2019-02-15T22:36:01.568Z,5.96
2019-02-15T22:38:31.854Z,5.90
2019-02-15T22:41:11.279Z,5.78
2019-02-15T22:43:43.293Z,6.05
2019-02-15T22:46:13.671Z,5.86
2019-02-15T22:48:43.994Z,5.83
2019-02-15T22:51:14.279Z,5.91
2019-02-15T22:53:44.581Z,5.79
2019-02-15T22:56:13.964Z,5.91
2019-02-15T22:58:44.240Z,6.21
2019-02-15T23:01:15.362Z,6.02
2019-02-15T23:03:45.636Z,6.13
2019-02-15T23:06:15.913Z,6.10
2019-02-15T23:08:46.209Z,6.24
2019-02-15T23:11:16.500Z,6.41
2019-02-15T23:13:46.778Z,6.44
2019-02-15T23:16:18.021Z,6.47
2019-02-15T23:18:49.934Z,6.38
2019-02-15T23:21:20.235Z,6.23
2019-02-15T23:23:50.528Z,5.99
2019-02-15T23:26:20.833Z,6.07
2019-02-15T23:28:51.125Z,5.82
2019-02-15T23:31:21.398Z,5.85
2019-02-15T23:33:54.488Z,5.71
2019-02-15T23:36:24.792Z,5.78
2019-02-15T23:38:55.061Z,6.10
2019-02-15T23:41:25.339Z,5.83
2019-02-15T23:43:55.641Z,5.81
2019-02-15T23:46:25.943Z,5.69
2019-02-15T23:48:56.225Z,5.61
2019-02-15T23:51:26.525Z,5.64
2019-02-15T23:53:56.797Z,5.97
2019-02-15T23:56:27.098Z,6.14
2019-02-15T23:58:57.451Z,6.01
